Time,TemperatureF,DewpointF,PressureIn,WindDirection,WindDirectionDegrees,WindSpeedMPH,WindSpeedGustMPH,Humidity,HourlyPrecipIn,Conditions,Clouds,dailyrainin,SoftwareType,DateUTC
2013-02-14 00:00:00,33.6,30.7,28.83,NW,315,1.1,0.0,89,0.00,,SKC,0.19,WeatherDisplay:10.37,2013-02-14 05:00:00,
2013-02-14 00:05:00,33.6,31.0,28.83,South,180,1.1,0.0,90,0.00,RA,SKC,0.00,WeatherDisplay:10.37,2013-02-14 05:05:00,
2013-02-14 00:10:00,33.4,30.8,28.83,South,180,1.1,0.0,90,0.00,RA,SKC,0.00,WeatherDisplay:10.37,2013-02-14 05:10:00,
2013-02-14 00:15:00,33.3,30.6,28.84,SW,225,0.0,0.0,90,0.00,,SKC,0.00,WeatherDisplay:10.37,2013-02-14 05:15:00,
2013-02-14 00:20:00,33.1,30.7,28.83,North,0,1.1,0.0,91,0.00,,SKC,0.00,WeatherDisplay:10.37,2013-02-14 05:20:00,
2013-02-14 00:25:00,33.1,30.7,28.83,West,270,1.1,0.0,91,0.00,,SKC,0.00,WeatherDisplay:10.37,2013-02-14 05:25:00,
2013-02-14 00:30:00,33.1,31.0,28.84,North,0,1.1,0.0,92,0.00,,SKC,0.00,WeatherDisplay:10.37,2013-02-14 05:30:00,
2013-02-14 00:35:00,32.9,30.8,28.84,NW,315,1.1,0.0,92,0.00,,SKC,0.00,WeatherDisplay:10.37,2013-02-14 05:35:00,
2013-02-14 00:40:00,32.7,30.7,28.84,NW,315,1.1,0.0,92,0.00,,SKC,0.00,WeatherDisplay:10.37,2013-02-14 05:40:00,
2013-02-14 00:45:00,32.7,30.7,28.84,North,0,1.1,0.0,92,0.00,,SKC,0.00,WeatherDisplay:10.37,2013-02-14 05:45:00,
2013-02-14 00:50:00,32.4,30.3,28.85,NW,315,1.1,0.0,92,0.00,,SKC,0.00,WeatherDisplay:10.37,2013-02-14 05:50:00,
2013-02-14 00:55:00,32.2,30.1,28.85,SW,225,1.1,0.0,92,0.00,,SKC,0.00,WeatherDisplay:10.37,2013-02-14 05:55:00,
2013-02-14 01:00:00,32.2,30.1,28.85,SE,135,1.1,0.0,92,0.00,,SKC,0.00,WeatherDisplay:10.37,2013-02-14 06:00:00,
2013-02-14 01:05:00,32.2,30.1,28.85,SE,135,0.0,0.0,92,0.00,,SKC,0.00,WeatherDisplay:10.37,2013-02-14 06:05:00,
2013-02-14 01:10:00,32.0,29.9,28.85,North,0,0.0,0.0,92,0.00,,SKC,0.00,WeatherDisplay:10.37,2013-02-14 06:10:00,
2013-02-14 01:15:00,31.8,29.8,28.85,NW,315,1.1,0.0,92,0.00,,SKC,0.00,WeatherDisplay:10.37,2013-02-14 06:15:00,
2013-02-14 01:20:00,31.8,30.0,28.86,North,0,0.7,0.0,93,0.00,,SKC,0.00,WeatherDisplay:10.37,2013-02-14 06:20:00,
2013-02-14 01:25:00,31.5,29.7,28.85,North,0,1.1,0.0,93,0.00,,SKC,0.00,WeatherDisplay:10.37,2013-02-14 06:25:00,
2013-02-14 01:30:00,31.3,29.8,28.85,South,180,1.1,0.0,94,0.00,,SKC,0.00,WeatherDisplay:10.37,2013-02-14 06:30:00,
2013-02-14 01:35:00,31.1,29.6,28.86,North,0,1.1,0.0,94,0.00,,SKC,0.00,WeatherDisplay:10.37,2013-02-14 06:35:00,
2013-02-14 01:40:00,30.9,29.4,28.86,North,0,1.1,0.0,94,0.00,,SKC,0.00,WeatherDisplay:10.37,2013-02-14 06:40:00,
2013-02-14 01:45:00,30.6,29.0,28.86,North,0,1.1,0.0,94,0.00,,SKC,0.00,WeatherDisplay:10.37,2013-02-14 06:45:00,
2013-02-14 01:50:00,30.6,29.0,28.86,North,0,1.1,0.0,94,0.00,,SKC,0.00,WeatherDisplay:10.37,2013-02-14 06:50:00,
2013-02-14 01:55:00,30.7,29.2,28.86,SW,225,1.1,0.0,94,0.00,,SKC,0.00,WeatherDisplay:10.37,2013-02-14 06:55:00,
2013-02-14 02:00:00,30.7,29.2,28.86,WSW,251,0.0,1.0,94,0.00,,SKC,0.00,WeatherDisplay:10.37,2013-02-14 07:00:00,
2013-02-14 02:05:00,30.6,29.0,28.86,SW,225,1.1,0.0,94,0.00,,SKC,0.00,WeatherDisplay:10.37,2013-02-14 07:05:00,
2013-02-14 02:10:00,30.4,28.9,28.86,SE,135,0.0,0.0,94,0.00,,SKC,0.00,WeatherDisplay:10.37,2013-02-14 07:10:00,
2013-02-14 02:15:00,30.2,28.7,28.86,SW,225,0.0,0.0,94,0.00,,SKC,0.00,WeatherDisplay:10.37,2013-02-14 07:15:00,
2013-02-14 02:20:00,30.3,28.8,28.86,SW,234,0.0,1.0,94,0.00,,SKC,0.00,WeatherDisplay:10.37,2013-02-14 07:20:00,
2013-02-14 02:25:00,30.2,28.7,28.87,South,180,0.0,0.0,94,0.00,,SKC,0.00,WeatherDisplay:10.37,2013-02-14 07:25:00,
2013-02-14 02:30:00,29.8,28.3,28.86,North,0,0.0,1.0,94,0.00,,SKC,0.00,WeatherDisplay:10.37,2013-02-14 07:30:00,
2013-02-14 02:35:00,29.7,28.1,28.87,West,270,1.1,0.0,94,0.00,,SKC,0.00,WeatherDisplay:10.37,2013-02-14 07:35:00,
2013-02-14 02:40:00,29.7,28.1,28.87,WNW,282,0.0,1.0,94,0.00,,SKC,0.00,WeatherDisplay:10.37,2013-02-14 07:40:00,
2013-02-14 02:45:00,29.8,28.3,28.87,North,0,0.0,0.0,94,0.00,,SKC,0.00,WeatherDisplay:10.37,2013-02-14 07:45:00,
2013-02-14 02:50:00,29.7,28.1,28.87,WNW,297,0.0,1.0,94,0.00,,SKC,0.00,WeatherDisplay:10.37,2013-02-14 07:50:00,
2013-02-14 02:55:00,29.8,28.3,28.87,NE,45,1.1,0.0,94,0.00,,SKC,0.00,WeatherDisplay:10.37,2013-02-14 07:55:00,
2013-02-14 03:00:00,29.7,28.1,28.87,NW,315,1.1,0.0,94,0.00,,SKC,0.00,WeatherDisplay:10.37,2013-02-14 08:00:00,
2013-02-14 03:05:00,29.7,28.1,28.87,NW,315,1.1,0.0,94,0.00,,SKC,0.00,WeatherDisplay:10.37,2013-02-14 08:05:00,
2013-02-14 03:10:00,29.5,28.2,28.87,West,270,1.1,0.0,95,0.00,,SKC,0.00,WeatherDisplay:10.37,2013-02-14 08:10:00,
2013-02-14 03:15:00,29.7,28.1,28.87,North,0,1.1,0.0,94,0.00,,SKC,0.00,WeatherDisplay:10.37,2013-02-14 08:15:00,
2013-02-14 03:20:00,29.7,28.1,28.87,North,0,1.1,0.0,94,0.00,,SKC,0.00,WeatherDisplay:10.37,2013-02-14 08:20:00,
2013-02-14 03:25:00,30.0,28.8,28.87,North,0,1.1,0.0,95,0.00,,SKC,0.00,WeatherDisplay:10.37,2013-02-14 08:25:00,
2013-02-14 03:36:00,29.9,28.7,28.87,North,0,0.0,0.0,95,0.00,CLR,SKC,0.00,WeatherDisplay:10.37,2013-02-14 08:36:00,
2013-02-14 03:41:00,29.7,28.4,28.88,North,0,1.1,0.0,95,0.00,CLR,SKC,0.00,WeatherDisplay:10.37,2013-02-14 08:41:00,
2013-02-14 03:46:00,29.5,28.5,28.88,North,0,1.1,0.0,96,0.00,CLR,SKC,0.00,WeatherDisplay:10.37,2013-02-14 08:46:00,
2013-02-14 03:51:00,29.5,28.5,28.87,North,0,1.1,0.0,96,0.00,CLR,SKC,0.00,WeatherDisplay:10.37,2013-02-14 08:51:00,
2013-02-14 03:56:00,29.5,28.5,28.87,SW,225,1.1,0.0,96,0.00,CLR,SKC,0.00,WeatherDisplay:10.37,2013-02-14 08:56:00,
2013-02-14 04:01:00,29.5,28.5,28.87,West,270,1.1,0.0,96,0.00,CLR,SKC,0.00,WeatherDisplay:10.37,2013-02-14 09:01:00,
2013-02-14 04:06:00,29.3,28.3,28.88,South,180,1.1,0.0,96,0.00,CLR,SKC,0.00,WeatherDisplay:10.37,2013-02-14 09:06:00,
2013-02-14 04:11:00,29.1,28.1,28.87,West,270,1.1,0.0,96,0.00,CLR,SKC,0.00,WeatherDisplay:10.37,2013-02-14 09:11:00,
2013-02-14 04:16:00,29.1,28.1,28.88,North,0,1.1,0.0,96,0.00,CLR,SKC,0.00,WeatherDisplay:10.37,2013-02-14 09:16:00,
2013-02-14 04:21:00,28.9,27.9,28.88,SW,225,1.1,0.0,96,0.00,CLR,SKC,0.00,WeatherDisplay:10.37,2013-02-14 09:21:00,
2013-02-14 04:26:00,28.9,27.9,28.88,NW,315,1.1,0.0,96,0.00,CLR,SKC,0.00,WeatherDisplay:10.37,2013-02-14 09:26:00,
2013-02-14 04:31:00,28.9,27.9,28.88,North,0,1.1,0.0,96,0.00,CLR,SKC,0.00,WeatherDisplay:10.37,2013-02-14 09:31:00,
2013-02-14 04:36:00,28.9,27.9,28.88,South,180,1.1,0.0,96,0.00,CLR,SKC,0.00,WeatherDisplay:10.37,2013-02-14 09:36:00,
2013-02-14 04:41:00,28.9,27.9,28.88,NW,315,1.1,0.0,96,0.00,CLR,SKC,0.00,WeatherDisplay:10.37,2013-02-14 09:41:00,
2013-02-14 04:46:00,28.9,27.9,28.89,North,0,1.1,0.0,96,0.00,CLR,SKC,0.00,WeatherDisplay:10.37,2013-02-14 09:46:00,
2013-02-14 04:51:00,28.9,27.9,28.89,North,0,1.1,0.0,96,0.00,CLR,SKC,0.00,WeatherDisplay:10.37,2013-02-14 09:51:00,
2013-02-14 04:56:00,28.8,27.8,28.89,SW,225,1.1,0.0,96,0.00,CLR,SKC,0.00,WeatherDisplay:10.37,2013-02-14 09:56:00,
2013-02-14 05:02:00,28.8,27.8,28.90,West,270,1.1,0.0,96,0.00,CLR,SKC,0.00,WeatherDisplay:10.37,2013-02-14 10:02:00,
2013-02-14 05:06:00,28.8,27.8,28.90,West,270,1.1,0.0,96,0.00,CLR,SKC,0.00,WeatherDisplay:10.37,2013-02-14 10:06:00,
2013-02-14 05:12:00,28.8,27.8,28.90,South,180,1.1,0.0,96,0.00,CLR,SKC,0.00,WeatherDisplay:10.37,2013-02-14 10:12:00,
2013-02-14 05:17:00,28.6,27.6,28.89,North,0,1.1,0.0,96,0.00,CLR,SKC,0.00,WeatherDisplay:10.37,2013-02-14 10:17:00,
2013-02-14 05:22:00,28.6,27.6,28.89,East,90,1.1,0.0,96,0.00,CLR,SKC,0.00,WeatherDisplay:10.37,2013-02-14 10:22:00,
2013-02-14 05:27:00,28.4,27.4,28.90,North,0,1.1,0.0,96,0.00,CLR,SKC,0.00,WeatherDisplay:10.37,2013-02-14 10:27:00,
2013-02-14 05:32:00,28.4,27.4,28.90,NW,315,1.1,0.0,96,0.00,CLR,SKC,0.00,WeatherDisplay:10.37,2013-02-14 10:32:00,
2013-02-14 05:37:00,28.4,27.4,28.90,South,180,1.1,0.0,96,0.00,CLR,SKC,0.00,WeatherDisplay:10.37,2013-02-14 10:37:00,
2013-02-14 05:42:00,28.4,27.4,28.91,NW,315,1.1,0.0,96,0.00,CLR,SKC,0.00,WeatherDisplay:10.37,2013-02-14 10:42:00,
2013-02-14 05:47:00,28.2,27.2,28.91,South,180,1.1,0.0,96,0.00,CLR,SKC,0.00,WeatherDisplay:10.37,2013-02-14 10:47:00,
2013-02-14 05:52:00,28.2,27.2,28.91,South,180,1.1,0.0,96,0.00,CLR,SKC,0.00,WeatherDisplay:10.37,2013-02-14 10:52:00,
2013-02-14 05:57:00,28.0,27.0,28.91,NW,315,1.1,0.0,96,0.00,CLR,SKC,0.00,WeatherDisplay:10.37,2013-02-14 10:57:00,
2013-02-14 06:02:00,28.0,27.0,28.91,North,0,1.1,0.0,96,0.00,CLR,SKC,0.00,WeatherDisplay:10.37,2013-02-14 11:02:00,
2013-02-14 06:07:00,27.9,26.9,28.91,North,0,1.1,0.0,96,0.00,CLR,SKC,0.00,WeatherDisplay:10.37,2013-02-14 11:07:00,
2013-02-14 06:12:00,27.9,26.9,28.92,North,0,1.1,0.0,96,0.00,CLR,SKC,0.00,WeatherDisplay:10.37,2013-02-14 11:12:00,
2013-02-14 06:17:00,27.7,25.7,28.92,North,0,1.1,0.0,92,0.00,CLR,SKC,0.00,WeatherDisplay:10.37,2013-02-14 11:17:00,
2013-02-14 06:22:00,27.5,25.5,28.92,North,0,1.1,0.0,92,0.00,CLR,SKC,0.00,WeatherDisplay:10.37,2013-02-14 11:22:00,
2013-02-14 06:27:00,27.3,25.3,28.92,North,0,1.1,0.0,92,0.00,CLR,SKC,0.00,WeatherDisplay:10.37,2013-02-14 11:27:00,
2013-02-14 06:32:00,27.3,25.3,28.92,North,0,1.1,0.0,92,0.00,CLR,SKC,0.00,WeatherDisplay:10.37,2013-02-14 11:32:00,
2013-02-14 06:37:00,27.3,25.3,28.93,North,0,1.1,0.0,92,0.00,CLR,SKC,0.00,WeatherDisplay:10.37,2013-02-14 11:37:00,
2013-02-14 06:42:00,27.3,25.3,28.93,North,0,1.1,0.0,92,0.00,CLR,SKC,0.00,WeatherDisplay:10.37,2013-02-14 11:42:00,
2013-02-14 06:47:00,27.1,25.1,28.93,North,0,1.1,0.0,92,0.00,CLR,SKC,0.00,WeatherDisplay:10.37,2013-02-14 11:47:00,
2013-02-14 06:52:00,26.8,24.5,28.93,NW,315,1.1,0.0,91,0.00,CLR,SKC,0.00,WeatherDisplay:10.37,2013-02-14 11:52:00,
2013-02-14 06:57:00,27.0,24.9,28.93,North,0,1.1,0.0,92,0.00,CLR,SKC,0.00,WeatherDisplay:10.37,2013-02-14 11:57:00,
2013-02-14 07:02:00,27.0,24.7,28.94,North,0,1.1,0.0,91,0.00,CLR,SKC,0.00,WeatherDisplay:10.37,2013-02-14 12:02:00,
2013-02-14 07:07:00,27.0,24.7,28.94,North,0,1.1,0.0,91,0.00,CLR,SKC,0.00,WeatherDisplay:10.37,2013-02-14 12:07:00,
2013-02-14 07:12:00,27.1,25.1,28.94,NW,315,1.1,0.0,92,0.00,CLR,SKC,0.00,WeatherDisplay:10.37,2013-02-14 12:12:00,
2013-02-14 07:17:00,27.1,25.1,28.94,SW,225,1.1,0.0,92,0.00,CLR,SKC,0.00,WeatherDisplay:10.37,2013-02-14 12:17:00,
2013-02-14 07:22:00,27.3,25.3,28.95,SW,225,1.1,0.0,92,0.00,CLR,SKC,0.00,WeatherDisplay:10.37,2013-02-14 12:22:00,
2013-02-14 07:27:00,27.1,25.1,28.95,NW,315,1.1,0.0,92,0.00,CLR,SKC,0.00,WeatherDisplay:10.37,2013-02-14 12:27:00,
2013-02-14 07:32:00,27.0,24.9,28.95,NW,315,1.1,0.0,92,0.00,CLR,SKC,0.00,WeatherDisplay:10.37,2013-02-14 12:32:00,
2013-02-14 07:37:00,27.0,24.9,28.96,NW,315,1.1,0.0,92,0.00,CLR,SKC,0.00,WeatherDisplay:10.37,2013-02-14 12:37:00,
2013-02-14 07:42:00,26.8,24.5,28.96,NW,315,1.1,0.0,91,0.00,CLR,SKC,0.00,WeatherDisplay:10.37,2013-02-14 12:42:00,
2013-02-14 07:47:00,27.5,25.5,28.96,NW,315,1.1,0.0,92,0.00,CLR,SKC,0.00,WeatherDisplay:10.37,2013-02-14 12:47:00,
2013-02-14 07:52:00,30.0,29.0,28.97,South,180,1.1,0.0,96,0.00,CLR,SKC,0.00,WeatherDisplay:10.37,2013-02-14 12:52:00,
2013-02-14 07:57:00,32.4,31.3,28.97,South,180,1.1,0.0,96,0.00,CLR,SKC,0.00,WeatherDisplay:10.37,2013-02-14 12:57:00,
2013-02-14 08:02:00,34.2,32.9,28.97,South,180,1.1,0.0,95,0.00,CLR,SKC,0.00,WeatherDisplay:10.37,2013-02-14 13:02:00,
2013-02-14 08:07:00,35.1,32.7,28.98,South,180,1.1,0.0,91,0.00,CLR,SKC,0.00,WeatherDisplay:10.37,2013-02-14 13:07:00,
2013-02-14 08:12:00,35.8,32.0,28.98,SW,225,1.1,0.0,86,0.00,CLR,SKC,0.00,WeatherDisplay:10.37,2013-02-14 13:12:00,
2013-02-14 08:17:00,36.5,31.8,28.98,West,270,1.1,0.0,83,0.00,CLR,SKC,0.00,WeatherDisplay:10.37,2013-02-14 13:17:00,
2013-02-14 08:22:00,37.8,33.7,28.99,SE,135,1.1,0.0,85,0.00,CLR,SKC,0.00,WeatherDisplay:10.37,2013-02-14 13:22:00,
2013-02-14 08:27:00,38.3,32.0,28.99,South,180,1.1,0.0,78,0.00,CLR,SKC,0.00,WeatherDisplay:10.37,2013-02-14 13:27:00,
2013-02-14 08:32:00,39.4,31.8,28.98,South,180,0.0,0.0,74,0.00,CLR,SKC,0.00,WeatherDisplay:10.37,2013-02-14 13:32:00,
2013-02-14 08:37:00,39.4,31.1,28.98,South,180,0.0,0.0,72,0.00,CLR,SKC,0.00,WeatherDisplay:10.37,2013-02-14 13:37:00,
2013-02-14 08:42:00,39.7,32.1,28.99,SW,225,0.0,0.0,74,0.00,CLR,SKC,0.00,WeatherDisplay:10.37,2013-02-14 13:42:00,
2013-02-14 08:47:00,41.2,32.8,28.99,South,180,0.0,0.0,72,0.00,CLR,SKC,0.00,WeatherDisplay:10.37,2013-02-14 13:47:00,
2013-02-14 08:52:00,41.2,31.8,28.99,South,180,0.0,0.0,69,0.00,CLR,SKC,0.00,WeatherDisplay:10.37,2013-02-14 13:52:00,
2013-02-14 08:57:00,41.7,32.3,28.99,South,180,0.0,0.0,69,0.00,CLR,SKC,0.00,WeatherDisplay:10.37,2013-02-14 13:57:00,
2013-02-14 09:02:00,41.7,31.6,28.98,SW,225,0.0,0.0,67,0.00,CLR,SKC,0.00,WeatherDisplay:10.37,2013-02-14 14:02:00,
2013-02-14 09:07:00,41.7,31.6,28.99,SW,225,0.0,0.0,67,0.00,CLR,SKC,0.00,WeatherDisplay:10.37,2013-02-14 14:07:00,
2013-02-14 09:12:00,42.8,33.0,28.99,South,180,0.0,0.0,68,0.00,CLR,SKC,0.00,WeatherDisplay:10.37,2013-02-14 14:12:00,
2013-02-14 09:17:00,43.5,34.4,28.99,SW,225,0.0,0.0,70,0.00,CLR,SKC,0.00,WeatherDisplay:10.37,2013-02-14 14:17:00,
2013-02-14 09:22:00,44.8,33.7,28.99,West,270,0.0,0.0,65,0.00,CLR,SKC,0.00,WeatherDisplay:10.37,2013-02-14 14:22:00,
2013-02-14 09:27:00,45.1,33.3,28.99,North,0,0.0,0.0,63,0.00,CLR,SKC,0.00,WeatherDisplay:10.37,2013-02-14 14:27:00,
2013-02-14 09:32:00,44.4,30.1,28.99,SW,225,0.0,0.0,57,0.00,CLR,SKC,0.00,WeatherDisplay:10.37,2013-02-14 14:32:00,
2013-02-14 09:37:00,44.2,30.0,29.00,SW,225,0.0,0.0,57,0.00,CLR,SKC,0.00,WeatherDisplay:10.37,2013-02-14 14:37:00,
2013-02-14 09:42:00,44.1,31.5,28.99,NW,315,0.0,0.0,61,0.00,CLR,SKC,0.00,WeatherDisplay:10.37,2013-02-14 14:42:00,
2013-02-14 09:47:00,44.8,32.1,28.98,SW,225,0.0,0.0,61,0.00,CLR,SKC,0.00,WeatherDisplay:10.37,2013-02-14 14:47:00,
2013-02-14 09:52:00,45.1,32.1,28.98,North,0,0.0,0.0,60,0.00,CLR,SKC,0.00,WeatherDisplay:10.37,2013-02-14 14:52:00,
2013-02-14 09:57:00,45.7,31.3,28.98,SW,225,0.0,0.0,57,0.00,CLR,SKC,0.00,WeatherDisplay:10.37,2013-02-14 14:57:00,
2013-02-14 10:02:00,48.2,33.7,28.98,SW,225,0.0,0.0,57,0.00,CLR,SKC,0.00,WeatherDisplay:10.37,2013-02-14 15:02:00,
2013-02-14 10:08:00,48.9,31.6,28.98,SW,225,0.0,0.0,51,0.00,CLR,SKC,0.00,WeatherDisplay:10.37,2013-02-14 15:08:00,
2013-02-14 10:13:00,48.7,32.4,28.98,North,0,0.0,0.0,53,0.00,CLR,SKC,0.00,WeatherDisplay:10.37,2013-02-14 15:13:00,
2013-02-14 10:18:00,49.6,31.7,28.98,South,180,0.0,0.0,50,0.00,CLR,SKC,0.00,WeatherDisplay:10.37,2013-02-14 15:18:00,
2013-02-14 10:23:00,50.4,30.3,28.98,SW,225,0.0,0.0,46,0.00,CLR,SKC,0.00,WeatherDisplay:10.37,2013-02-14 15:23:00,
2013-02-14 10:28:00,50.9,31.4,28.97,West,270,0.0,0.0,47,0.00,CLR,SKC,0.00,WeatherDisplay:10.37,2013-02-14 15:28:00,
2013-02-14 10:33:00,51.1,31.0,28.98,SW,225,0.0,0.0,46,0.00,CLR,SKC,0.00,WeatherDisplay:10.37,2013-02-14 15:33:00,
2013-02-14 10:38:00,51.3,30.1,28.98,SW,225,0.0,0.0,44,0.00,CLR,SKC,0.00,WeatherDisplay:10.37,2013-02-14 15:38:00,
2013-02-14 10:43:00,51.8,31.1,28.98,North,0,0.0,0.0,45,0.00,CLR,SKC,0.00,WeatherDisplay:10.37,2013-02-14 15:43:00,
2013-02-14 10:48:00,51.6,30.4,28.97,NE,45,0.0,0.0,44,0.00,CLR,SKC,0.00,WeatherDisplay:10.37,2013-02-14 15:48:00,
2013-02-14 10:53:00,51.3,28.9,28.96,North,0,0.0,0.0,42,0.00,CLR,SKC,0.00,WeatherDisplay:10.37,2013-02-14 15:53:00,
2013-02-14 10:58:00,50.4,27.5,28.95,North,0,0.0,0.0,41,0.00,CLR,SKC,0.00,WeatherDisplay:10.37,2013-02-14 15:58:00,
2013-02-14 11:03:00,52.0,30.2,28.95,SW,225,0.0,0.0,43,0.00,CLR,SKC,0.00,WeatherDisplay:10.37,2013-02-14 16:03:00,
2013-02-14 11:08:00,52.7,28.4,28.95,SE,135,0.0,0.0,39,0.00,CLR,SKC,0.00,WeatherDisplay:10.37,2013-02-14 16:08:00,
2013-02-14 11:13:00,52.3,26.8,28.95,SW,225,0.0,0.0,37,0.00,CLR,SKC,0.00,WeatherDisplay:10.37,2013-02-14 16:13:00,
2013-02-14 11:18:00,52.0,25.1,28.95,NW,315,0.0,0.0,35,0.00,CLR,SKC,0.00,WeatherDisplay:10.37,2013-02-14 16:18:00,
2013-02-14 11:23:00,52.0,25.8,28.96,West,270,0.0,0.0,36,0.00,CLR,SKC,0.00,WeatherDisplay:10.37,2013-02-14 16:23:00,
2013-02-14 11:28:00,52.5,27.0,28.96,NW,315,0.0,0.0,37,0.00,CLR,SKC,0.00,WeatherDisplay:10.37,2013-02-14 16:28:00,
2013-02-14 11:33:00,52.9,29.8,28.96,SE,135,0.0,0.0,41,0.00,CLR,SKC,0.00,WeatherDisplay:10.37,2013-02-14 16:33:00,
2013-02-14 11:38:00,52.3,29.3,28.96,SW,225,0.0,0.0,41,0.00,CLR,SKC,0.00,WeatherDisplay:10.37,2013-02-14 16:38:00,
2013-02-14 11:43:00,52.2,27.9,28.96,South,180,0.0,0.0,39,0.00,CLR,SKC,0.00,WeatherDisplay:10.37,2013-02-14 16:43:00,
2013-02-14 11:48:00,53.2,28.3,28.95,SW,225,0.0,0.0,38,0.00,CLR,SKC,0.00,WeatherDisplay:10.37,2013-02-14 16:48:00,
2013-02-14 11:53:00,54.0,30.8,28.95,SW,225,0.0,0.0,41,0.00,CLR,SKC,0.00,WeatherDisplay:10.37,2013-02-14 16:53:00,
2013-02-14 11:58:00,55.0,28.5,28.94,South,180,0.0,0.0,36,0.00,CLR,SKC,0.00,WeatherDisplay:10.37,2013-02-14 16:58:00,
2013-02-14 12:03:00,54.5,29.4,28.94,SW,225,0.0,0.0,38,0.00,CLR,SKC,0.00,WeatherDisplay:10.37,2013-02-14 17:03:00,
2013-02-14 12:08:00,54.5,29.4,28.93,SE,135,0.0,0.0,38,0.00,CLR,SKC,0.00,WeatherDisplay:10.37,2013-02-14 17:08:00,
2013-02-14 12:13:00,55.9,30.0,28.93,East,90,0.0,0.0,37,0.00,CLR,SKC,0.00,WeatherDisplay:10.37,2013-02-14 17:13:00,
2013-02-14 12:18:00,56.7,29.3,28.93,SW,225,0.0,0.0,35,0.00,CLR,SKC,0.00,WeatherDisplay:10.37,2013-02-14 17:18:00,
2013-02-14 12:23:00,56.7,28.6,28.93,SW,225,0.0,0.0,34,0.00,CLR,SKC,0.00,WeatherDisplay:10.37,2013-02-14 17:23:00,
2013-02-14 12:28:00,55.9,30.0,28.93,NE,45,0.0,0.0,37,0.00,CLR,SKC,0.00,WeatherDisplay:10.37,2013-02-14 17:28:00,
2013-02-14 12:33:00,56.3,29.7,28.93,East,90,0.0,0.0,36,0.00,CLR,SKC,0.00,WeatherDisplay:10.37,2013-02-14 17:33:00,
2013-02-14 12:38:00,57.2,29.1,28.93,North,0,0.0,0.0,34,0.00,CLR,SKC,0.00,WeatherDisplay:10.37,2013-02-14 17:38:00,
2013-02-14 12:43:00,56.7,26.3,28.92,NW,315,0.0,0.0,31,0.00,CLR,SKC,0.00,WeatherDisplay:10.37,2013-02-14 17:43:00,
2013-02-14 12:48:00,56.8,28.0,28.91,SW,225,0.0,0.0,33,0.00,CLR,SKC,0.00,WeatherDisplay:10.37,2013-02-14 17:48:00,
2013-02-14 12:53:00,57.7,29.5,28.91,NW,315,0.0,0.0,34,0.00,CLR,SKC,0.00,WeatherDisplay:10.37,2013-02-14 17:53:00,
2013-02-14 12:58:00,58.1,29.8,28.91,West,270,0.0,0.0,34,0.00,CLR,SKC,0.00,WeatherDisplay:10.37,2013-02-14 17:58:00,
2013-02-14 13:03:00,59.0,26.8,28.91,SE,135,0.0,0.0,29,0.00,CLR,SKC,0.00,WeatherDisplay:10.37,2013-02-14 18:03:00,
2013-02-14 13:08:00,58.6,25.6,28.90,North,0,0.0,0.0,28,0.00,CLR,SKC,0.00,WeatherDisplay:10.37,2013-02-14 18:08:00,
2013-02-14 13:13:00,59.2,29.3,28.90,NE,45,0.0,0.0,32,0.00,CLR,SKC,0.00,WeatherDisplay:10.37,2013-02-14 18:13:00,
2013-02-14 13:18:00,58.3,26.1,28.89,East,90,0.0,0.0,29,0.00,CLR,SKC,0.00,WeatherDisplay:10.37,2013-02-14 18:18:00,
2013-02-14 13:23:00,56.7,27.9,28.89,SW,225,0.0,0.0,33,0.00,CLR,SKC,0.00,WeatherDisplay:10.37,2013-02-14 18:23:00,
2013-02-14 13:28:00,56.3,29.7,28.89,SW,225,0.0,0.0,36,0.00,CLR,SKC,0.00,WeatherDisplay:10.37,2013-02-14 18:28:00,
2013-02-14 13:33:00,55.9,28.7,28.88,East,90,0.0,0.0,35,0.00,CLR,SKC,0.00,WeatherDisplay:10.37,2013-02-14 18:33:00,
2013-02-14 13:38:00,55.2,28.7,28.87,NE,45,0.0,0.0,36,0.00,CLR,SKC,0.00,WeatherDisplay:10.37,2013-02-14 18:38:00,
2013-02-14 13:43:00,55.0,29.2,28.87,NW,315,0.0,0.0,37,0.00,CLR,SKC,0.00,WeatherDisplay:10.37,2013-02-14 18:43:00,
2013-02-14 13:48:00,55.2,29.4,28.87,NE,45,0.0,0.0,37,0.00,CLR,SKC,0.00,WeatherDisplay:10.37,2013-02-14 18:48:00,
2013-02-14 13:53:00,55.0,28.5,28.86,NW,315,0.0,0.0,36,0.00,CLR,SKC,0.00,WeatherDisplay:10.37,2013-02-14 18:53:00,
2013-02-14 13:58:00,55.4,30.2,28.85,SW,225,0.0,0.0,38,0.00,CLR,SKC,0.00,WeatherDisplay:10.37,2013-02-14 18:58:00,
2013-02-14 14:03:00,55.9,30.0,28.84,SE,135,0.0,0.0,37,0.00,CLR,SKC,0.00,WeatherDisplay:10.37,2013-02-14 19:03:00,
2013-02-14 14:08:00,56.1,30.8,28.84,South,180,0.0,0.0,38,0.00,CLR,SKC,0.00,WeatherDisplay:10.37,2013-02-14 19:08:00,
2013-02-14 14:13:00,55.9,29.3,28.84,SW,225,0.0,0.0,36,0.00,CLR,SKC,0.00,WeatherDisplay:10.37,2013-02-14 19:13:00,
2013-02-14 14:18:00,55.0,28.5,28.84,South,180,0.0,0.0,36,0.00,CLR,SKC,0.00,WeatherDisplay:10.37,2013-02-14 19:18:00,
2013-02-14 14:23:00,55.2,30.0,28.83,SE,135,0.0,0.0,38,0.00,CLR,SKC,0.00,WeatherDisplay:10.37,2013-02-14 19:23:00,
2013-02-14 14:28:00,55.8,29.2,28.83,SW,225,0.0,0.0,36,0.00,CLR,SKC,0.00,WeatherDisplay:10.37,2013-02-14 19:28:00,
2013-02-14 14:33:00,55.4,29.5,28.84,West,270,0.0,0.0,37,0.00,CLR,SKC,0.00,WeatherDisplay:10.37,2013-02-14 19:33:00,
2013-02-14 14:38:00,55.2,28.7,28.84,West,270,0.0,0.0,36,0.00,CLR,SKC,0.00,WeatherDisplay:10.37,2013-02-14 19:38:00,
2013-02-14 14:43:00,55.0,29.2,28.84,West,270,0.0,0.0,37,0.00,CLR,SKC,0.00,WeatherDisplay:10.37,2013-02-14 19:43:00,
2013-02-14 14:48:00,55.0,29.2,28.84,South,180,0.0,0.0,37,0.00,CLR,SKC,0.00,WeatherDisplay:10.37,2013-02-14 19:48:00,
2013-02-14 14:53:00,54.9,29.7,28.84,West,270,0.0,0.0,38,0.00,CLR,SKC,0.00,WeatherDisplay:10.37,2013-02-14 19:53:00,
2013-02-14 14:58:00,54.9,30.3,28.84,North,0,0.0,0.0,39,0.00,CLR,SKC,0.00,WeatherDisplay:10.37,2013-02-14 19:58:00,
2013-02-14 15:03:00,55.0,31.7,28.84,West,270,0.0,0.0,41,0.00,CLR,SKC,0.00,WeatherDisplay:10.37,2013-02-14 20:03:00,
2013-02-14 15:08:00,54.9,30.3,28.84,SW,225,0.0,0.0,39,0.00,CLR,SKC,0.00,WeatherDisplay:10.37,2013-02-14 20:08:00,
2013-02-14 15:13:00,54.7,31.4,28.85,NE,45,0.0,0.0,41,0.00,CLR,SKC,0.00,WeatherDisplay:10.37,2013-02-14 20:13:00,
2013-02-14 15:18:00,54.7,31.4,28.84,SW,225,0.0,0.0,41,0.00,CLR,SKC,0.00,WeatherDisplay:10.37,2013-02-14 20:18:00,
2013-02-14 15:23:00,54.7,32.0,28.84,NW,315,0.0,0.0,42,0.00,CLR,SKC,0.00,WeatherDisplay:10.37,2013-02-14 20:23:00,
2013-02-14 15:28:00,54.7,32.0,28.84,South,180,0.0,0.0,42,0.00,CLR,SKC,0.00,WeatherDisplay:10.37,2013-02-14 20:28:00,
2013-02-14 15:33:00,54.7,32.0,28.84,NE,45,0.0,0.0,42,0.00,CLR,SKC,0.00,WeatherDisplay:10.37,2013-02-14 20:33:00,
2013-02-14 15:38:00,54.7,31.4,28.83,NE,45,0.0,0.0,41,0.00,CLR,SKC,0.00,WeatherDisplay:10.37,2013-02-14 20:38:00,
2013-02-14 15:43:00,54.5,31.3,28.84,South,180,0.0,0.0,41,0.00,CLR,SKC,0.00,WeatherDisplay:10.37,2013-02-14 20:43:00,
2013-02-14 15:48:00,54.5,28.7,28.84,North,0,0.0,0.0,37,0.00,CLR,SKC,0.00,WeatherDisplay:10.37,2013-02-14 20:48:00,
2013-02-14 15:54:00,54.3,29.9,28.84,NW,315,0.0,0.0,39,0.00,CLR,SKC,0.00,WeatherDisplay:10.37,2013-02-14 20:54:00,
2013-02-14 15:59:00,54.1,29.1,28.85,NW,315,0.0,0.0,38,0.00,CLR,SKC,0.00,WeatherDisplay:10.37,2013-02-14 20:59:00,
2013-02-14 16:04:00,54.0,28.9,28.85,SW,225,0.0,0.0,38,0.00,CLR,SKC,0.00,WeatherDisplay:10.37,2013-02-14 21:04:00,
2013-02-14 16:09:00,53.6,27.3,28.85,West,270,0.0,0.0,36,0.00,CLR,SKC,0.00,WeatherDisplay:10.37,2013-02-14 21:09:00,
2013-02-14 16:14:00,53.4,27.8,28.84,South,180,0.0,0.0,37,0.00,CLR,SKC,0.00,WeatherDisplay:10.37,2013-02-14 21:14:00,
2013-02-14 16:19:00,53.2,28.3,28.84,West,270,0.0,0.0,38,0.00,CLR,SKC,0.00,WeatherDisplay:10.37,2013-02-14 21:19:00,
2013-02-14 16:24:00,53.2,28.9,28.85,South,180,0.0,0.0,39,0.00,CLR,SKC,0.00,WeatherDisplay:10.37,2013-02-14 21:24:00,
2013-02-14 16:29:00,53.2,28.9,28.84,West,270,0.0,0.0,39,0.00,CLR,SKC,0.00,WeatherDisplay:10.37,2013-02-14 21:29:00,
2013-02-14 16:34:00,53.2,30.1,28.85,North,0,0.0,0.0,41,0.00,CLR,SKC,0.00,WeatherDisplay:10.37,2013-02-14 21:34:00,
2013-02-14 16:39:00,53.1,30.0,28.85,SW,225,0.0,0.0,41,0.00,CLR,SKC,0.00,WeatherDisplay:10.37,2013-02-14 21:39:00,
2013-02-14 16:44:00,52.9,31.0,28.85,NW,315,0.0,0.0,43,0.00,CLR,SKC,0.00,WeatherDisplay:10.37,2013-02-14 21:44:00,
2013-02-14 16:49:00,52.7,30.8,28.85,NW,315,0.0,0.0,43,0.00,CLR,SKC,0.00,WeatherDisplay:10.37,2013-02-14 21:49:00,
2013-02-14 16:54:00,52.5,30.6,28.85,East,90,0.0,0.0,43,0.00,CLR,SKC,0.00,WeatherDisplay:10.37,2013-02-14 21:54:00,
2013-02-14 16:59:00,52.3,31.0,28.85,SE,135,0.0,0.0,44,0.00,CLR,SKC,0.00,WeatherDisplay:10.37,2013-02-14 21:59:00,
2013-02-14 17:04:00,52.2,30.9,28.85,NNE,22,0.0,0.0,44,0.00,CLR,SKC,0.00,WeatherDisplay:10.37,2013-02-14 22:04:00,
2013-02-14 17:09:00,52.0,31.3,28.85,East,90,0.0,0.0,45,0.00,CLR,SKC,0.00,WeatherDisplay:10.37,2013-02-14 22:09:00,
2013-02-14 17:14:00,51.8,31.7,28.85,South,180,0.0,0.0,46,0.00,CLR,SKC,0.00,WeatherDisplay:10.37,2013-02-14 22:14:00,
2013-02-14 17:19:00,51.6,31.5,28.85,WNW,292,0.0,0.0,46,0.00,CLR,SKC,0.00,WeatherDisplay:10.37,2013-02-14 22:19:00,
2013-02-14 17:24:00,51.4,31.9,28.85,SW,225,0.0,0.0,47,0.00,CLR,SKC,0.00,WeatherDisplay:10.37,2013-02-14 22:24:00,
2013-02-14 17:29:00,51.3,31.7,28.85,West,270,0.0,0.0,47,0.00,CLR,SKC,0.00,WeatherDisplay:10.37,2013-02-14 22:29:00,
2013-02-14 17:34:00,51.1,32.1,28.85,North,0,0.0,0.0,48,0.00,CLR,SKC,0.00,WeatherDisplay:10.37,2013-02-14 22:34:00,
2013-02-14 17:39:00,50.7,32.2,28.85,NE,45,0.0,0.0,49,0.00,CLR,SKC,0.00,WeatherDisplay:10.37,2013-02-14 22:39:00,
2013-02-14 17:44:00,50.5,32.1,28.86,NE,45,0.0,0.0,49,0.00,CLR,SKC,0.00,WeatherDisplay:10.37,2013-02-14 22:44:00,
2013-02-14 17:49:00,50.5,32.1,28.86,SW,225,0.0,0.0,49,0.00,CLR,SKC,0.00,WeatherDisplay:10.37,2013-02-14 22:49:00,
2013-02-14 17:54:00,50.4,32.9,28.86,South,180,0.0,0.0,51,0.00,CLR,SKC,0.00,WeatherDisplay:10.37,2013-02-14 22:54:00,
2013-02-14 17:59:00,49.6,32.2,28.86,NW,315,0.0,0.0,51,0.00,CLR,SKC,0.00,WeatherDisplay:10.37,2013-02-14 22:59:00,
2013-02-14 18:04:00,49.5,33.0,28.86,NW,315,0.0,0.0,53,0.00,CLR,SKC,0.00,WeatherDisplay:10.37,2013-02-14 23:04:00,
2013-02-14 18:09:00,48.9,33.0,28.87,South,180,0.0,0.0,54,0.00,CLR,SKC,0.00,WeatherDisplay:10.37,2013-02-14 23:09:00,
2013-02-14 18:14:00,48.6,33.1,28.87,West,270,0.0,0.0,55,0.00,CLR,SKC,0.00,WeatherDisplay:10.37,2013-02-14 23:14:00,
2013-02-14 18:19:00,48.0,32.6,28.87,NW,315,0.0,0.0,55,0.00,CLR,SKC,0.00,WeatherDisplay:10.37,2013-02-14 23:19:00,
2013-02-14 18:24:00,47.5,33.4,28.88,NW,315,0.0,0.0,58,0.00,CLR,SKC,0.00,WeatherDisplay:10.37,2013-02-14 23:24:00,
2013-02-14 18:29:00,46.8,32.8,28.89,NW,315,0.0,0.0,58,0.00,CLR,SKC,0.00,WeatherDisplay:10.37,2013-02-14 23:29:00,
2013-02-14 18:34:00,46.0,32.9,28.89,NW,315,0.0,0.0,60,0.00,CLR,SKC,0.00,WeatherDisplay:10.37,2013-02-14 23:34:00,
2013-02-14 18:39:00,45.7,33.0,28.89,North,0,0.0,0.0,61,0.00,CLR,SKC,0.00,WeatherDisplay:10.37,2013-02-14 23:39:00,
2013-02-14 18:44:00,45.9,33.6,28.89,NW,315,0.0,0.0,62,0.00,CLR,SKC,0.00,WeatherDisplay:10.37,2013-02-14 23:44:00,
2013-02-14 18:49:00,45.9,33.6,28.89,North,0,0.0,0.0,62,0.00,CLR,SKC,0.00,WeatherDisplay:10.37,2013-02-14 23:49:00,
2013-02-14 18:54:00,45.9,33.2,28.90,SE,135,0.0,0.0,61,0.00,CLR,SKC,0.00,WeatherDisplay:10.37,2013-02-14 23:54:00,
2013-02-14 18:59:00,45.7,33.0,28.89,West,270,0.0,0.0,61,0.00,CLR,SKC,0.00,WeatherDisplay:10.37,2013-02-14 23:59:00,
2013-02-14 19:04:00,45.5,33.2,28.89,WNW,292,0.0,0.0,62,0.00,CLR,SKC,0.00,WeatherDisplay:10.37,2013-02-15 00:04:00,
2013-02-14 19:09:00,45.1,32.9,28.90,North,0,0.0,0.0,62,0.00,CLR,SKC,0.00,WeatherDisplay:10.37,2013-02-15 00:09:00,
2013-02-14 19:14:00,44.8,32.9,28.90,North,0,0.0,0.0,63,0.00,CLR,SKC,0.00,WeatherDisplay:10.37,2013-02-15 00:14:00,
2013-02-14 19:19:00,44.2,32.4,28.90,West,270,0.0,0.0,63,0.00,CLR,SKC,0.00,WeatherDisplay:10.37,2013-02-15 00:19:00,
2013-02-14 19:24:00,43.9,32.5,28.90,NW,315,0.0,0.0,64,0.00,CLR,SKC,0.00,WeatherDisplay:10.37,2013-02-15 00:24:00,
2013-02-14 19:29:00,43.5,32.5,28.90,North,0,0.0,0.0,65,0.00,CLR,SKC,0.00,WeatherDisplay:10.37,2013-02-15 00:29:00,
2013-02-14 19:34:00,43.3,32.7,28.91,NW,315,0.0,0.0,66,0.00,CLR,SKC,0.00,WeatherDisplay:10.37,2013-02-15 00:34:00,
2013-02-14 19:39:00,42.8,32.6,28.91,NW,315,0.0,0.0,67,0.00,CLR,SKC,0.00,WeatherDisplay:10.37,2013-02-15 00:39:00,
2013-02-14 19:44:00,42.1,33.4,28.91,North,0,0.0,0.0,71,0.00,CLR,SKC,0.00,WeatherDisplay:10.37,2013-02-15 00:44:00,
2013-02-14 19:49:00,41.9,33.5,28.91,NW,315,0.0,0.0,72,0.00,CLR,SKC,0.00,WeatherDisplay:10.37,2013-02-15 00:49:00,
2013-02-14 19:54:00,41.7,33.7,28.92,South,180,1.1,0.0,73,0.00,CLR,SKC,0.00,WeatherDisplay:10.37,2013-02-15 00:54:00,
2013-02-14 19:59:00,41.2,33.2,28.92,NW,315,0.0,0.0,73,0.00,CLR,SKC,0.00,WeatherDisplay:10.37,2013-02-15 00:59:00,
2013-02-14 20:04:00,40.5,32.8,28.92,NW,315,1.1,0.0,74,0.00,CLR,SKC,0.00,WeatherDisplay:10.37,2013-02-15 01:04:00,
2013-02-14 20:09:00,40.1,32.8,28.93,South,180,1.1,0.0,75,0.00,CLR,SKC,0.00,WeatherDisplay:10.37,2013-02-15 01:09:00,
2013-02-14 20:14:00,39.7,32.5,28.92,North,0,1.1,0.0,75,0.00,CLR,SKC,0.00,WeatherDisplay:10.37,2013-02-15 01:14:00,
2013-02-14 20:19:00,39.4,32.4,28.93,West,270,0.0,0.0,76,0.00,CLR,SKC,0.00,WeatherDisplay:10.37,2013-02-15 01:19:00,
2013-02-14 20:24:00,39.2,32.9,28.93,SW,225,0.0,0.0,78,0.00,CLR,SKC,0.00,WeatherDisplay:10.37,2013-02-15 01:24:00,
2013-02-14 20:29:00,39.0,32.7,28.93,West,270,1.1,0.0,78,0.00,CLR,SKC,0.00,WeatherDisplay:10.37,2013-02-15 01:29:00,
2013-02-14 20:34:00,38.8,32.9,28.92,South,180,0.0,0.0,79,0.00,CLR,SKC,0.00,WeatherDisplay:10.37,2013-02-15 01:34:00,
2013-02-14 20:39:00,38.3,32.7,28.93,East,90,0.0,0.0,80,0.00,CLR,SKC,0.00,WeatherDisplay:10.37,2013-02-15 01:39:00,
2013-02-14 20:44:00,37.9,32.6,28.93,North,0,0.0,0.0,81,0.00,CLR,SKC,0.00,WeatherDisplay:10.37,2013-02-15 01:44:00,
2013-02-14 20:49:00,37.6,32.3,28.93,NW,315,1.1,0.0,81,0.00,CLR,SKC,0.00,WeatherDisplay:10.37,2013-02-15 01:49:00,
2013-02-14 20:54:00,37.4,32.4,28.93,NW,315,1.1,0.0,82,0.00,CLR,SKC,0.00,WeatherDisplay:10.37,2013-02-15 01:54:00,
2013-02-14 20:59:00,37.2,32.5,28.93,NW,315,0.0,0.0,83,0.00,CLR,SKC,0.00,WeatherDisplay:10.37,2013-02-15 01:59:00,
2013-02-14 21:04:00,37.2,32.5,28.94,NW,315,0.0,0.0,83,0.00,CLR,SKC,0.00,WeatherDisplay:10.37,2013-02-15 02:04:00,
2013-02-14 21:09:00,37.0,32.9,28.94,West,270,1.1,0.0,85,0.00,CLR,SKC,0.00,WeatherDisplay:10.37,2013-02-15 02:09:00,
2013-02-14 21:14:00,36.9,32.8,28.94,North,0,0.0,0.0,85,0.00,CLR,SKC,0.00,WeatherDisplay:10.37,2013-02-15 02:14:00,
2013-02-14 21:19:00,36.7,31.4,28.94,North,0,0.0,0.0,81,0.00,CLR,SKC,0.00,WeatherDisplay:10.37,2013-02-15 02:19:00,
2013-02-14 21:24:00,36.5,31.2,28.95,South,180,0.0,0.0,81,0.00,CLR,SKC,0.00,WeatherDisplay:10.37,2013-02-15 02:24:00,
2013-02-14 21:29:00,35.8,30.5,28.95,SE,135,0.0,0.0,81,0.00,CLR,SKC,0.00,WeatherDisplay:10.37,2013-02-15 02:29:00,
2013-02-14 21:34:00,35.4,30.2,28.95,SE,135,1.1,0.0,81,0.00,CLR,SKC,0.00,WeatherDisplay:10.37,2013-02-15 02:34:00,
2013-02-14 21:39:00,35.2,30.0,28.96,NE,45,0.0,0.0,81,0.00,CLR,SKC,0.00,WeatherDisplay:10.37,2013-02-15 02:39:00,
2013-02-14 21:44:00,35.1,30.1,28.97,SW,225,0.0,0.0,82,0.00,CLR,SKC,0.00,WeatherDisplay:10.37,2013-02-15 02:44:00,
2013-02-14 21:49:00,34.9,30.2,28.97,NW,315,1.1,0.0,83,0.00,CLR,SKC,0.00,WeatherDisplay:10.37,2013-02-15 02:49:00,
2013-02-14 21:54:00,34.9,30.2,28.97,North,0,0.0,0.0,83,0.00,CLR,SKC,0.00,WeatherDisplay:10.37,2013-02-15 02:54:00,
2013-02-14 21:59:00,34.9,30.5,28.97,NW,315,0.0,0.0,84,0.00,CLR,SKC,0.00,WeatherDisplay:10.37,2013-02-15 02:59:00,
2013-02-14 22:04:00,34.7,30.4,28.97,NW,315,1.1,0.0,84,0.00,CLR,SKC,0.00,WeatherDisplay:10.37,2013-02-15 03:04:00,
2013-02-14 22:10:00,34.7,30.4,28.98,North,0,1.1,0.0,84,0.00,CLR,SKC,0.00,WeatherDisplay:10.37,2013-02-15 03:10:00,
2013-02-14 22:15:00,34.5,30.2,28.97,South,180,2.3,0.0,84,0.00,CLR,SKC,0.00,WeatherDisplay:10.37,2013-02-15 03:15:00,
2013-02-14 22:20:00,34.3,30.3,28.97,South,180,1.1,0.0,85,0.00,CLR,SKC,0.00,WeatherDisplay:10.37,2013-02-15 03:20:00,
2013-02-14 22:25:00,34.0,29.7,28.98,SW,225,1.1,0.0,84,0.00,CLR,SKC,0.00,WeatherDisplay:10.37,2013-02-15 03:25:00,
2013-02-14 22:30:00,34.0,29.9,28.98,South,180,1.1,0.0,85,0.00,CLR,SKC,0.00,WeatherDisplay:10.37,2013-02-15 03:30:00,
2013-02-14 22:35:00,33.8,29.8,28.97,South,180,1.1,0.0,85,0.00,CLR,SKC,0.00,WeatherDisplay:10.37,2013-02-15 03:35:00,
2013-02-14 22:40:00,33.6,29.6,28.98,East,90,1.1,0.0,85,0.00,CLR,SKC,0.00,WeatherDisplay:10.37,2013-02-15 03:40:00,
2013-02-14 22:45:00,33.6,29.6,28.98,NW,315,1.1,0.0,85,0.00,CLR,SKC,0.00,WeatherDisplay:10.37,2013-02-15 03:45:00,
2013-02-14 22:50:00,33.4,29.7,28.98,NW,315,0.0,0.0,86,0.00,CLR,SKC,0.00,WeatherDisplay:10.37,2013-02-15 03:50:00,
2013-02-14 22:55:00,33.3,29.5,28.98,South,180,0.0,0.0,86,0.00,CLR,SKC,0.00,WeatherDisplay:10.37,2013-02-15 03:55:00,
2013-02-14 23:00:00,33.1,29.9,28.98,North,0,0.0,0.0,88,0.00,CLR,SKC,0.00,WeatherDisplay:10.37,2013-02-15 04:00:00,
2013-02-14 23:05:00,33.1,29.9,28.98,North,0,1.1,0.0,88,0.00,CLR,SKC,0.00,WeatherDisplay:10.37,2013-02-15 04:05:00,
2013-02-14 23:10:00,32.9,29.7,28.98,NW,315,1.1,0.0,88,0.00,CLR,SKC,0.00,WeatherDisplay:10.37,2013-02-15 04:10:00,
2013-02-14 23:15:00,32.7,29.6,28.98,North,0,1.1,0.0,88,0.00,CLR,SKC,0.00,WeatherDisplay:10.37,2013-02-15 04:15:00,
2013-02-14 23:20:00,32.5,29.4,28.98,SE,135,0.0,0.0,88,0.00,CLR,SKC,0.00,WeatherDisplay:10.37,2013-02-15 04:20:00,
2013-02-14 23:25:00,32.2,29.0,28.98,East,90,1.1,0.0,88,0.00,CLR,SKC,0.00,WeatherDisplay:10.37,2013-02-15 04:25:00,
2013-02-14 23:30:00,32.0,28.8,28.98,North,0,1.1,0.0,88,0.00,CLR,SKC,0.00,WeatherDisplay:10.37,2013-02-15 04:30:00,
2013-02-14 23:35:00,31.8,28.7,28.98,SW,225,1.1,0.0,88,0.00,CLR,SKC,0.00,WeatherDisplay:10.37,2013-02-15 04:35:00,
2013-02-14 23:40:00,31.8,28.7,28.98,NW,322,0.0,2.0,88,0.00,CLR,SKC,0.00,WeatherDisplay:10.37,2013-02-15 04:40:00,
2013-02-14 23:45:00,31.8,28.7,28.98,North,0,1.1,0.0,88,0.00,CLR,SKC,0.00,WeatherDisplay:10.37,2013-02-15 04:45:00,
2013-02-14 23:50:00,31.6,28.5,28.98,North,358,0.0,1.0,88,0.00,CLR,SKC,0.00,WeatherDisplay:10.37,2013-02-15 04:50:00,
2013-02-14 23:55:00,31.5,28.3,28.98,North,0,0.0,0.0,88,0.00,CLR,SKC,0.00,WeatherDisplay:10.37,2013-02-15 04:55:00,